sensor_id;sensor_type;location;lat;lon;timestamp;pressure;altitude;pressure_sealevel;temperature;humidity
26823;BME280;14852;51.910;8.878;2022-09-16T00:00:14;99007.47;;;16.02;52.82
26823;BME280;14852;51.910;8.878;2022-09-16T00:02:40;99002.38;;;16.01;53.53
26823;BME280;14852;51.910;8.878;2022-09-16T00:05:07;99006.66;;;16.02;53.45
26823;BME280;14852;51.910;8.878;2022-09-16T00:07:33;99007.59;;;16.01;53.49
26823;BME280;14852;51.910;8.878;2022-09-16T00:09:59;99014.63;;;16.00;53.22
26823;BME280;14852;51.910;8.878;2022-09-16T00:12:25;99011.06;;;16.01;53.54
26823;BME280;14852;51.910;8.878;2022-09-16T00:14:53;99009.41;;;16.00;53.98
26823;BME280;14852;51.910;8.878;2022-09-16T00:17:20;99012.28;;;15.97;54.24
26823;BME280;14852;51.910;8.878;2022-09-16T00:19:46;99006.47;;;15.93;53.91
26823;BME280;14852;51.910;8.878;2022-09-16T00:22:12;99000.38;;;15.93;53.78
26823;BME280;14852;51.910;8.878;2022-09-16T00:24:37;99000.56;;;15.91;53.97
26823;BME280;14852;51.910;8.878;2022-09-16T00:27:03;98994.72;;;15.88;54.12
26823;BME280;14852;51.910;8.878;2022-09-16T00:29:29;98991.28;;;15.87;54.53
26823;BME280;14852;51.910;8.878;2022-09-16T00:31:55;98996.78;;;15.84;54.64
26823;BME280;14852;51.910;8.878;2022-09-16T00:34:21;98999.53;;;15.83;54.59
26823;BME280;14852;51.910;8.878;2022-09-16T00:36:47;98998.69;;;15.82;54.49
26823;BME280;14852;51.910;8.878;2022-09-16T00:39:13;98978.84;;;15.80;54.61
26823;BME280;14852;51.910;8.878;2022-09-16T00:41:39;98985.88;;;15.79;54.69
26823;BME280;14852;51.910;8.878;2022-09-16T00:44:50;98985.06;;;15.79;54.56
26823;BME280;14852;51.910;8.878;2022-09-16T00:46:53;98977.59;;;15.74;54.96
26823;BME280;14852;51.910;8.878;2022-09-16T00:49:29;98987.22;;;15.74;55.04
26823;BME280;14852;51.910;8.878;2022-09-16T00:52:01;98977.84;;;15.71;55.13
26823;BME280;14852;51.910;8.878;2022-09-16T00:54:28;98987.47;;;15.71;54.95
26823;BME280;14852;51.910;8.878;2022-09-16T00:56:57;98997.81;;;15.72;55.07
26823;BME280;14852;51.910;8.878;2022-09-16T00:59:27;98987.34;;;15.72;55.16
26823;BME280;14852;51.910;8.878;2022-09-16T01:01:57;98987.34;;;15.72;55.40
26823;BME280;14852;51.910;8.878;2022-09-16T01:04:28;98992.72;;;15.71;55.62
26823;BME280;14852;51.910;8.878;2022-09-16T01:06:55;98986.41;;;15.73;55.61
26823;BME280;14852;51.910;8.878;2022-09-16T01:09:23;98989.97;;;15.72;55.46
26823;BME280;14852;51.910;8.878;2022-09-16T01:11:50;98982.13;;;15.72;55.25
26823;BME280;14852;51.910;8.878;2022-09-16T01:14:17;98986.66;;;15.70;55.61
26823;BME280;14852;51.910;8.878;2022-09-16T01:22:54;98981.41;;;15.70;55.39
26823;BME280;14852;51.910;8.878;2022-09-16T01:25:45;98980.75;;;15.68;55.71
26823;BME280;14852;51.910;8.878;2022-09-16T01:43:16;98989.72;;;15.75;55.89
26823;BME280;14852;51.910;8.878;2022-09-16T01:46:15;98992.47;;;15.74;55.92
26823;BME280;14852;51.910;8.878;2022-09-16T01:51:51;98997.69;;;15.74;55.66
26823;BME280;14852;51.910;8.878;2022-09-16T01:54:42;98991.50;;;15.75;55.41
26823;BME280;14852;51.910;8.878;2022-09-16T01:57:16;98999.22;;;15.76;55.72
26823;BME280;14852;51.910;8.878;2022-09-16T01:59:57;98996.50;;;15.78;56.03
26823;BME280;14852;51.910;8.878;2022-09-16T02:02:53;98991.94;;;15.80;55.67
26823;BME280;14852;51.910;8.878;2022-09-16T02:05:53;98993.03;;;15.77;55.65
26823;BME280;14852;51.910;8.878;2022-09-16T02:08:34;98992.47;;;15.74;55.53
26823;BME280;14852;51.910;8.878;2022-09-16T02:11:06;98983.91;;;15.72;55.74
26823;BME280;14852;51.910;8.878;2022-09-16T02:13:46;98988.31;;;15.71;56.17
26823;BME280;14852;51.910;8.878;2022-09-16T02:16:44;98985.69;;;15.71;55.57
26823;BME280;14852;51.910;8.878;2022-09-16T02:19:22;98982.66;;;15.66;55.87
26823;BME280;14852;51.910;8.878;2022-09-16T02:21:51;98979.72;;;15.60;56.47
26823;BME280;14852;51.910;8.878;2022-09-16T02:24:20;98980.13;;;15.55;56.26
26823;BME280;14852;51.910;8.878;2022-09-16T02:26:53;98984.53;;;15.54;56.22
26823;BME280;14852;51.910;8.878;2022-09-16T02:29:24;98980.47;;;15.50;56.09
26823;BME280;14852;51.910;8.878;2022-09-16T02:31:54;98978.09;;;15.47;56.71
26823;BME280;14852;51.910;8.878;2022-09-16T02:34:28;98987.91;;;15.45;56.48
26823;BME280;14852;51.910;8.878;2022-09-16T02:36:56;98989.41;;;15.48;56.03
26823;BME280;14852;51.910;8.878;2022-09-16T02:39:28;98983.63;;;15.44;56.46
26823;BME280;14852;51.910;8.878;2022-09-16T02:41:55;98983.63;;;15.44;56.30
26823;BME280;14852;51.910;8.878;2022-09-16T02:44:24;98986.25;;;15.44;55.92
26823;BME280;14852;51.910;8.878;2022-09-16T02:47:16;98987.63;;;15.48;56.31
26823;BME280;14852;51.910;8.878;2022-09-16T02:49:59;98995.47;;;15.48;56.23
26823;BME280;14852;51.910;8.878;2022-09-16T02:57:58;98986.66;;;15.49;56.15
26823;BME280;14852;51.910;8.878;2022-09-16T03:00:24;98992.47;;;15.53;56.08
26823;BME280;14852;51.910;8.878;2022-09-16T03:02:52;98987.97;;;15.55;56.31
26823;BME280;14852;51.910;8.878;2022-09-16T03:05:18;98991.44;;;15.55;56.34
26823;BME280;14852;51.910;8.878;2022-09-16T03:07:44;98985.34;;;15.55;56.12
26823;BME280;14852;51.910;8.878;2022-09-16T03:10:12;98980.94;;;15.55;56.22
26823;BME280;14852;51.910;8.878;2022-09-16T03:13:09;98985.78;;;15.60;55.95
26823;BME280;14852;51.910;8.878;2022-09-16T03:15:54;98988.53;;;15.58;56.40
26823;BME280;14852;51.910;8.878;2022-09-16T03:19:08;98985.91;;;15.58;56.21
26823;BME280;14852;51.910;8.878;2022-09-16T03:21:47;98982.75;;;15.55;56.24
26823;BME280;14852;51.910;8.878;2022-09-16T03:27:07;98982.75;;;15.55;56.47
26823;BME280;14852;51.910;8.878;2022-09-16T03:29:48;98973.19;;;15.54;56.17
26823;BME280;14852;51.910;8.878;2022-09-16T03:32:31;98969.75;;;15.53;56.37
26823;BME280;14852;51.910;8.878;2022-09-16T03:35:25;98978.44;;;15.54;56.33
26823;BME280;14852;51.910;8.878;2022-09-16T03:37:54;98969.03;;;15.51;56.43
26823;BME280;14852;51.910;8.878;2022-09-16T03:40:22;98968.22;;;15.51;56.44
26823;BME280;14852;51.910;8.878;2022-09-16T03:42:48;98971.66;;;15.51;56.95
26823;BME280;14852;51.910;8.878;2022-09-16T03:45:17;98973.44;;;15.51;56.93
26823;BME280;14852;51.910;8.878;2022-09-16T03:47:46;98964.63;;;15.52;57.01
26823;BME280;14852;51.910;8.878;2022-09-16T03:50:13;98961.19;;;15.51;56.99
26823;BME280;14852;51.910;8.878;2022-09-16T03:52:39;98962.41;;;15.47;57.05
26823;BME280;14852;51.910;8.878;2022-09-16T03:55:06;98971.06;;;15.48;56.78
26823;BME280;14852;51.910;8.878;2022-09-16T03:57:32;98963.34;;;15.46;56.91
26823;BME280;14852;51.910;8.878;2022-09-16T03:59:58;98959.78;;;15.47;56.76
26823;BME280;14852;51.910;8.878;2022-09-16T04:02:24;98960.47;;;15.49;56.78
26823;BME280;14852;51.910;8.878;2022-09-16T04:04:50;98956.06;;;15.50;56.66
26823;BME280;14852;51.910;8.878;2022-09-16T04:07:16;98964.88;;;15.49;56.89
26823;BME280;14852;51.910;8.878;2022-09-16T04:09:42;98967.38;;;15.50;56.71
26823;BME280;14852;51.910;8.878;2022-09-16T04:12:08;98966.66;;;15.48;57.04
26823;BME280;14852;51.910;8.878;2022-09-16T04:14:34;98965.84;;;15.48;56.65
26823;BME280;14852;51.910;8.878;2022-09-16T04:17:00;98970.25;;;15.47;56.80
26823;BME280;14852;51.910;8.878;2022-09-16T04:19:26;98965.97;;;15.46;57.24
26823;BME280;14852;51.910;8.878;2022-09-16T04:21:52;98959.22;;;15.44;57.03
26823;BME280;14852;51.910;8.878;2022-09-16T04:24:18;98960.31;;;15.41;56.96
26823;BME280;14852;51.910;8.878;2022-09-16T04:26:44;98955.31;;;15.38;57.31
26823;BME280;14852;51.910;8.878;2022-09-16T04:29:10;98958.19;;;15.35;57.26
26823;BME280;14852;51.910;8.878;2022-09-16T04:31:37;98965.09;;;15.36;57.33
26823;BME280;14852;51.910;8.878;2022-09-16T04:34:03;98958.06;;;15.37;56.93
26823;BME280;14852;51.910;8.878;2022-09-16T04:36:29;98963.88;;;15.40;56.96
26823;BME280;14852;51.910;8.878;2022-09-16T04:38:55;98958.53;;;15.42;56.91
26823;BME280;14852;51.910;8.878;2022-09-16T04:41:24;98955.78;;;15.43;56.96
26823;BME280;14852;51.910;8.878;2022-09-16T04:43:52;98956.88;;;15.41;57.02
26823;BME280;14852;51.910;8.878;2022-09-16T04:46:18;98955.31;;;15.38;56.97
26823;BME280;14852;51.910;8.878;2022-09-16T04:48:49;98949.25;;;15.38;57.12
26823;BME280;14852;51.910;8.878;2022-09-16T04:51:15;98948.56;;;15.36;57.03
26823;BME280;14852;51.910;8.878;2022-09-16T04:53:42;98943.59;;;15.33;57.03
26823;BME280;14852;51.910;8.878;2022-09-16T04:56:15;98947.31;;;15.30;57.24
26823;BME280;14852;51.910;8.878;2022-09-16T04:58:50;98936.00;;;15.30;57.50
26823;BME280;14852;51.910;8.878;2022-09-16T05:01:22;98946.72;;;15.27;57.27
26823;BME280;14852;51.910;8.878;2022-09-16T05:03:51;98953.88;;;15.25;57.37
26823;BME280;14852;51.910;8.878;2022-09-16T05:06:27;98960.75;;;15.26;57.42
26823;BME280;14852;51.910;8.878;2022-09-16T05:08:54;98953.03;;;15.24;57.44
26823;BME280;14852;51.910;8.878;2022-09-16T05:11:26;98950.16;;;15.27;57.61
26823;BME280;14852;51.910;8.878;2022-09-16T05:13:53;98947.56;;;15.27;57.04
26823;BME280;14852;51.910;8.878;2022-09-16T05:16:21;98948.38;;;15.28;57.67
26823;BME280;14852;51.910;8.878;2022-09-16T05:18:49;98938.16;;;15.25;57.75
26823;BME280;14852;51.910;8.878;2022-09-16T05:21:19;98941.91;;;15.22;57.31
26823;BME280;14852;51.910;8.878;2022-09-16T05:23:46;98944.63;;;15.20;57.71
26823;BME280;14852;51.910;8.878;2022-09-16T05:26:22;98943.53;;;15.23;57.83
26823;BME280;14852;51.910;8.878;2022-09-16T05:28:49;98948.09;;;15.21;57.86
26823;BME280;14852;51.910;8.878;2022-09-16T05:31:23;98953.19;;;15.23;57.55
26823;BME280;14852;51.910;8.878;2022-09-16T05:36:30;98959.94;;;15.25;57.49
26823;BME280;14852;51.910;8.878;2022-09-16T05:38:56;98958.16;;;15.26;57.56
26823;BME280;14852;51.910;8.878;2022-09-16T05:41:23;98957.44;;;15.23;57.81
26823;BME280;14852;51.910;8.878;2022-09-16T05:43:49;98959.81;;;15.27;57.66
26823;BME280;14852;51.910;8.878;2022-09-16T05:46:21;98957.91;;;15.29;57.58
26823;BME280;14852;51.910;8.878;2022-09-16T05:48:48;98952.66;;;15.29;57.57
26823;BME280;14852;51.910;8.878;2022-09-16T05:51:20;98960.13;;;15.33;57.64
26823;BME280;14852;51.910;8.878;2022-09-16T05:53:48;98962.59;;;15.35;57.44
26823;BME280;14852;51.910;8.878;2022-09-16T05:56:18;98964.00;;;15.39;57.42
26823;BME280;14852;51.910;8.878;2022-09-16T05:58:45;98964.72;;;15.41;57.71
26823;BME280;14852;51.910;8.878;2022-09-16T06:01:22;98966.97;;;15.45;57.20
26823;BME280;14852;51.910;8.878;2022-09-16T06:03:50;98974.53;;;15.48;57.61
26823;BME280;14852;51.910;8.878;2022-09-16T06:08:59;98970.69;;;15.52;57.73
26823;BME280;14852;51.910;8.878;2022-09-16T06:11:27;98964.63;;;15.52;57.60
26823;BME280;14852;51.910;8.878;2022-09-16T06:13:58;98954.16;;;15.52;57.51
26823;BME280;14852;51.910;8.878;2022-09-16T06:16:26;98957.75;;;15.51;57.68
26823;BME280;14852;51.910;8.878;2022-09-16T06:18:54;98948.56;;;15.56;57.57
26823;BME280;14852;51.910;8.878;2022-09-16T06:21:21;98940.44;;;15.60;57.57
26823;BME280;14852;51.910;8.878;2022-09-16T06:23:47;98945.88;;;15.68;57.57
26823;BME280;14852;51.910;8.878;2022-09-16T06:26:17;98948.38;;;15.79;56.93
26823;BME280;14852;51.910;8.878;2022-09-16T06:28:43;98947.31;;;15.91;56.76
26823;BME280;14852;51.910;8.878;2022-09-16T06:31:15;98945.91;;;16.37;56.01
26823;BME280;14852;51.910;8.878;2022-09-16T06:33:41;98953.66;;;16.77;55.24
26823;BME280;14852;51.910;8.878;2022-09-16T06:36:12;98957.25;;;16.66;54.81
26823;BME280;14852;51.910;8.878;2022-09-16T06:38:39;98955.13;;;16.50;55.40
26823;BME280;14852;51.910;8.878;2022-09-16T06:41:07;98949.34;;;16.37;55.87
26823;BME280;14852;51.910;8.878;2022-09-16T06:43:34;98954.03;;;16.34;56.11
26823;BME280;14852;51.910;8.878;2022-09-16T06:46:10;98953.75;;;16.37;56.02
26823;BME280;14852;51.910;8.878;2022-09-16T06:48:42;98964.25;;;16.37;55.88
26823;BME280;14852;51.910;8.878;2022-09-16T06:51:12;98967.81;;;16.36;56.17
26823;BME280;14852;51.910;8.878;2022-09-16T06:53:39;98977.06;;;16.40;56.22
26823;BME280;14852;51.910;8.878;2022-09-16T06:56:12;98988.13;;;16.43;55.88
26823;BME280;14852;51.910;8.878;2022-09-16T06:58:40;98978.03;;;16.39;55.94
26823;BME280;14852;51.910;8.878;2022-09-16T07:01:11;98988.38;;;16.30;56.29
26823;BME280;14852;51.910;8.878;2022-09-16T07:03:39;98975.94;;;16.23;56.56
26823;BME280;14852;51.910;8.878;2022-09-16T07:06:07;98979.91;;;16.17;56.53
26823;BME280;14852;51.910;8.878;2022-09-16T07:08:35;98978.69;;;16.12;56.92
26823;BME280;14852;51.910;8.878;2022-09-16T07:11:04;98972.72;;;16.10;57.02
26823;BME280;14852;51.910;8.878;2022-09-16T07:13:31;98973.97;;;16.06;56.94
26823;BME280;14852;51.910;8.878;2022-09-16T07:16:13;98963.59;;;16.04;56.81
26823;BME280;14852;51.910;8.878;2022-09-16T07:18:40;98963.75;;;16.03;56.74
26823;BME280;14852;51.910;8.878;2022-09-16T07:21:10;98967.06;;;16.05;56.84
26823;BME280;14852;51.910;8.878;2022-09-16T07:23:37;98973.97;;;16.15;56.75
26823;BME280;14852;51.910;8.878;2022-09-16T07:26:16;98979.81;;;16.28;56.53
26823;BME280;14852;51.910;8.878;2022-09-16T07:28:44;98984.25;;;16.38;56.26
26823;BME280;14852;51.910;8.878;2022-09-16T07:31:17;98990.63;;;16.54;55.68
26823;BME280;14852;51.910;8.878;2022-09-16T07:33:46;98988.19;;;16.82;55.33
26823;BME280;14852;51.910;8.878;2022-09-16T07:36:16;98981.38;;;17.18;54.80
26823;BME280;14852;51.910;8.878;2022-09-16T07:38:42;98992.53;;;17.39;54.22
26823;BME280;14852;51.910;8.878;2022-09-16T07:41:16;98983.66;;;17.50;53.65
26823;BME280;14852;51.910;8.878;2022-09-16T07:43:42;98976.41;;;17.71;53.40
26823;BME280;14852;51.910;8.878;2022-09-16T07:46:10;98979.97;;;18.52;52.05
26823;BME280;14852;51.910;8.878;2022-09-16T07:48:37;98976.50;;;20.91;46.64
26823;BME280;14852;51.910;8.878;2022-09-16T07:53:36;98975.66;;;24.78;39.67
26823;BME280;14852;51.910;8.878;2022-09-16T07:56:04;98964.03;;;25.56;38.50
26823;BME280;14852;51.910;8.878;2022-09-16T07:58:30;98964.94;;;26.92;36.49
26823;BME280;14852;51.910;8.878;2022-09-16T08:00:56;98960.63;;;27.70;35.36
26823;BME280;14852;51.910;8.878;2022-09-16T08:03:22;98955.66;;;28.69;34.31
26823;BME280;14852;51.910;8.878;2022-09-16T08:05:47;98959.06;;;29.14;33.19
26823;BME280;14852;51.910;8.878;2022-09-16T08:08:13;98964.56;;;28.95;34.33
26823;BME280;14852;51.910;8.878;2022-09-16T08:10:39;98963.69;;;29.26;33.63
26823;BME280;14852;51.910;8.878;2022-09-16T08:13:07;98961.28;;;28.93;34.65
26823;BME280;14852;51.910;8.878;2022-09-16T08:15:33;98952.75;;;29.88;33.63
26823;BME280;14852;51.910;8.878;2022-09-16T08:17:59;98950.13;;;30.67;31.97
26823;BME280;14852;51.910;8.878;2022-09-16T08:20:25;98952.63;;;29.65;33.31
26823;BME280;14852;51.910;8.878;2022-09-16T08:22:51;98958.06;;;28.01;35.81
26823;BME280;14852;51.910;8.878;2022-09-16T08:25:17;98961.84;;;26.68;37.48
26823;BME280;14852;51.910;8.878;2022-09-16T08:27:43;98972.38;;;25.47;39.60
26823;BME280;14852;51.910;8.878;2022-09-16T08:30:10;98973.25;;;24.62;40.52
26823;BME280;14852;51.910;8.878;2022-09-16T08:32:35;98970.75;;;24.39;41.05
26823;BME280;14852;51.910;8.878;2022-09-16T08:35:02;98973.91;;;24.13;41.07
26823;BME280;14852;51.910;8.878;2022-09-16T08:37:27;98978.69;;;25.46;39.13
26823;BME280;14852;51.910;8.878;2022-09-16T08:39:53;98968.81;;;26.63;36.69
26823;BME280;14852;51.910;8.878;2022-09-16T08:42:55;98966.25;;;28.13;34.78
26823;BME280;14852;51.910;8.878;2022-09-16T08:48:53;98974.75;;;28.79;33.48
26823;BME280;14852;51.910;8.878;2022-09-16T08:51:21;98967.25;;;26.95;35.56
26823;BME280;14852;51.910;8.878;2022-09-16T08:53:59;98982.38;;;25.73;37.84
26823;BME280;14852;51.910;8.878;2022-09-16T08:56:29;98989.56;;;25.23;38.71
26823;BME280;14852;51.910;8.878;2022-09-16T08:58:59;98986.03;;;25.16;37.83
26823;BME280;14852;51.910;8.878;2022-09-16T09:01:33;98985.22;;;25.43;38.20
26823;BME280;14852;51.910;8.878;2022-09-16T09:04:01;98976.56;;;25.97;35.46
26823;BME280;14852;51.910;8.878;2022-09-16T09:07:08;98980.94;;;25.70;36.32
26823;BME280;14852;51.910;8.878;2022-09-16T09:10:05;98982.66;;;25.29;37.74
26823;BME280;14852;51.910;8.878;2022-09-16T09:12:49;98974.09;;;26.37;35.35
26823;BME280;14852;51.910;8.878;2022-09-16T09:15:43;98979.25;;;26.04;36.18
26823;BME280;14852;51.910;8.878;2022-09-16T09:18:41;98979.25;;;26.04;36.65
26823;BME280;14852;51.910;8.878;2022-09-16T09:21:28;98974.03;;;25.54;37.67
26823;BME280;14852;51.910;8.878;2022-09-16T09:27:16;98981.84;;;24.43;38.98
26823;BME280;14852;51.910;8.878;2022-09-16T09:30:16;98979.97;;;24.22;40.18
26823;BME280;14852;51.910;8.878;2022-09-16T09:35:55;98976.00;;;24.18;39.39
26823;BME280;14852;51.910;8.878;2022-09-16T09:38:43;98981.06;;;23.98;39.26
26823;BME280;14852;51.910;8.878;2022-09-16T09:41:30;98978.06;;;23.87;39.43
26823;BME280;14852;51.910;8.878;2022-09-16T09:46:55;98974.22;;;23.74;39.12
26823;BME280;14852;51.910;8.878;2022-09-16T09:54:51;98963.03;;;24.08;37.90
26823;BME280;14852;51.910;8.878;2022-09-16T09:57:30;98957.34;;;24.11;37.95
26823;BME280;14852;51.910;8.878;2022-09-16T10:00:17;98961.91;;;24.17;38.33
26823;BME280;14852;51.910;8.878;2022-09-16T10:02:44;98945.66;;;24.06;37.92
26823;BME280;14852;51.910;8.878;2022-09-16T10:05:23;98952.53;;;23.86;37.47
26823;BME280;14852;51.910;8.878;2022-09-16T10:07:52;98956.28;;;23.91;37.31
26823;BME280;14852;51.910;8.878;2022-09-16T10:10:23;98950.31;;;23.89;37.49
26823;BME280;14852;51.910;8.878;2022-09-16T10:12:49;98946.41;;;23.70;36.47
26823;BME280;14852;51.910;8.878;2022-09-16T10:15:24;98952.06;;;23.67;36.45
26823;BME280;14852;51.910;8.878;2022-09-16T10:17:52;98940.53;;;23.45;36.07
26823;BME280;14852;51.910;8.878;2022-09-16T10:20:36;98940.50;;;23.54;36.74
26823;BME280;14852;51.910;8.878;2022-09-16T10:23:10;98931.69;;;23.68;36.69
26823;BME280;14852;51.910;8.878;2022-09-16T10:25:38;98927.09;;;23.91;35.79
26823;BME280;14852;51.910;8.878;2022-09-16T10:28:23;98932.25;;;24.14;35.88
26823;BME280;14852;51.910;8.878;2022-09-16T10:30:56;98933.34;;;24.19;35.72
26823;BME280;14852;51.910;8.878;2022-09-16T10:33:32;98931.25;;;24.30;35.36
26823;BME280;14852;51.910;8.878;2022-09-16T10:36:05;98946.00;;;24.53;34.07
26823;BME280;14852;51.910;8.878;2022-09-16T10:38:43;98936.06;;;24.62;34.57
26823;BME280;14852;51.910;8.878;2022-09-16T10:44:31;98944.22;;;24.61;34.07
26823;BME280;14852;51.910;8.878;2022-09-16T10:47:04;98925.94;;;24.51;33.31
26823;BME280;14852;51.910;8.878;2022-09-16T10:49:51;98921.41;;;24.45;33.92
26823;BME280;14852;51.910;8.878;2022-09-16T10:52:25;98929.41;;;24.30;34.22
26823;BME280;14852;51.910;8.878;2022-09-16T10:54:52;98922.78;;;24.41;34.02
26823;BME280;14852;51.910;8.878;2022-09-16T10:57:26;98914.00;;;24.62;33.79
26823;BME280;14852;51.910;8.878;2022-09-16T11:09:06;98920.69;;;23.86;34.27
26823;BME280;14852;51.910;8.878;2022-09-16T11:15:10;98921.78;;;23.47;35.50
26823;BME280;14852;51.910;8.878;2022-09-16T11:18:08;98918.75;;;23.21;35.96
26823;BME280;14852;51.910;8.878;2022-09-16T11:21:09;98919.63;;;22.98;36.30
26823;BME280;14852;51.910;8.878;2022-09-16T11:27:06;98906.03;;;23.01;36.37
26823;BME280;14852;51.910;8.878;2022-09-16T11:30:03;98905.69;;;23.04;36.38
26823;BME280;14852;51.910;8.878;2022-09-16T11:33:11;98902.09;;;23.12;36.03
26823;BME280;14852;51.910;8.878;2022-09-16T11:44:45;98892.59;;;23.03;34.13
26823;BME280;14852;51.910;8.878;2022-09-16T11:48:05;98899.00;;;22.94;34.39
26823;BME280;14852;51.910;8.878;2022-09-16T11:51:07;98906.97;;;22.63;34.88
26823;BME280;14852;51.910;8.878;2022-09-16T11:56:50;98895.03;;;22.90;34.37
26823;BME280;14852;51.910;8.878;2022-09-16T11:59:27;98887.75;;;22.92;33.91
26823;BME280;14852;51.910;8.878;2022-09-16T12:02:28;98888.56;;;22.92;33.81
26823;BME280;14852;51.910;8.878;2022-09-16T12:08:06;98898.34;;;22.69;33.65
26823;BME280;14852;51.910;8.878;2022-09-16T12:10:53;98887.91;;;22.67;33.77
26823;BME280;14852;51.910;8.878;2022-09-16T12:13:34;98881.28;;;22.71;33.27
26823;BME280;14852;51.910;8.878;2022-09-16T12:16:06;98887.34;;;22.80;32.95
26823;BME280;14852;51.910;8.878;2022-09-16T12:18:52;98883.06;;;22.79;33.14
26823;BME280;14852;51.910;8.878;2022-09-16T12:21:37;98862.03;;;22.55;33.27
26823;BME280;14852;51.910;8.878;2022-09-16T12:24:34;98880.50;;;22.40;33.90
26823;BME280;14852;51.910;8.878;2022-09-16T12:35:27;98962.66;;;20.97;37.66
26823;BME280;14852;51.910;8.878;2022-09-16T12:37:55;98956.50;;;20.56;38.34
26823;BME280;14852;51.910;8.878;2022-09-16T12:40:42;98975.56;;;20.25;39.09
26823;BME280;14852;51.910;8.878;2022-09-16T12:49:51;98988.16;;;18.76;41.93
26823;BME280;14852;51.910;8.878;2022-09-16T12:53:05;98968.19;;;18.56;41.78
26823;BME280;14852;51.910;8.878;2022-09-16T12:55:57;98967.66;;;18.53;42.51
26823;BME280;14852;51.910;8.878;2022-09-16T12:58:47;98966.94;;;18.60;42.45
26823;BME280;14852;51.910;8.878;2022-09-16T13:01:29;98967.03;;;18.68;42.56
26823;BME280;14852;51.910;8.878;2022-09-16T13:04:24;98956.66;;;18.67;42.57
26823;BME280;14852;51.910;8.878;2022-09-16T13:06:54;98948.28;;;18.54;43.22
26823;BME280;14852;51.910;8.878;2022-09-16T13:09:37;98942.31;;;18.52;42.71
26823;BME280;14852;51.910;8.878;2022-09-16T13:12:06;98938.25;;;18.39;43.54
26823;BME280;14852;51.910;8.878;2022-09-16T13:14:55;98932.47;;;18.36;43.96
26823;BME280;14852;51.910;8.878;2022-09-16T13:17:36;98921.44;;;18.32;44.05
26823;BME280;14852;51.910;8.878;2022-09-16T13:25:27;98912.13;;;18.20;43.68
26823;BME280;14852;51.910;8.878;2022-09-16T13:28:20;98907.44;;;18.14;44.09
26823;BME280;14852;51.910;8.878;2022-09-16T13:30:47;98905.91;;;18.12;44.57
26823;BME280;14852;51.910;8.878;2022-09-16T13:33:27;98917.66;;;18.17;44.43
26823;BME280;14852;51.910;8.878;2022-09-16T13:38:55;98900.63;;;18.21;44.51
26823;BME280;14852;51.910;8.878;2022-09-16T13:41:47;98897.91;;;18.31;44.00
26823;BME280;14852;51.910;8.878;2022-09-16T13:49:47;98904.06;;;18.39;43.70
26823;BME280;14852;51.910;8.878;2022-09-16T13:52:32;98904.28;;;18.46;44.09
26823;BME280;14852;51.910;8.878;2022-09-16T13:55:05;98899.25;;;18.53;44.31
26823;BME280;14852;51.910;8.878;2022-09-16T14:00:43;98889.34;;;18.64;44.20
26823;BME280;14852;51.910;8.878;2022-09-16T14:03:45;98882.16;;;18.66;43.56
26823;BME280;14852;51.910;8.878;2022-09-16T14:09:39;98875.75;;;18.69;43.82
26823;BME280;14852;51.910;8.878;2022-09-16T14:14:49;98869.19;;;18.73;44.52
26823;BME280;14852;51.910;8.878;2022-09-16T14:17:21;98858.22;;;18.77;44.35
26823;BME280;14852;51.910;8.878;2022-09-16T14:19:51;98858.41;;;18.84;44.30
26823;BME280;14852;51.910;8.878;2022-09-16T14:22:20;98858.63;;;18.91;44.51
26823;BME280;14852;51.910;8.878;2022-09-16T14:24:47;98858.69;;;18.99;44.35
26823;BME280;14852;51.910;8.878;2022-09-16T14:27:27;98857.78;;;19.16;44.03
26823;BME280;14852;51.910;8.878;2022-09-16T14:29:58;98858.69;;;19.33;43.85
26823;BME280;14852;51.910;8.878;2022-09-16T14:32:34;98860.44;;;19.50;43.36
26823;BME280;14852;51.910;8.878;2022-09-16T14:35:08;98853.06;;;19.62;43.44
26823;BME280;14852;51.910;8.878;2022-09-16T14:37:36;98847.31;;;19.66;43.40
26823;BME280;14852;51.910;8.878;2022-09-16T14:40:10;98846.72;;;19.72;43.32
26823;BME280;14852;51.910;8.878;2022-09-16T14:42:44;98850.81;;;19.75;42.93
26823;BME280;14852;51.910;8.878;2022-09-16T14:45:14;98844.06;;;19.72;42.87
26823;BME280;14852;51.910;8.878;2022-09-16T14:47:41;98849.34;;;19.80;42.36
26823;BME280;14852;51.910;8.878;2022-09-16T14:50:22;98856.28;;;19.89;42.75
26823;BME280;14852;51.910;8.878;2022-09-16T14:52:59;98860.41;;;19.92;41.82
26823;BME280;14852;51.910;8.878;2022-09-16T14:55:28;98862.22;;;19.92;41.12
26823;BME280;14852;51.910;8.878;2022-09-16T14:57:55;98864.03;;;19.83;41.65
26823;BME280;14852;51.910;8.878;2022-09-16T15:00:24;98857.09;;;19.82;41.21
26823;BME280;14852;51.910;8.878;2022-09-16T15:03:11;98862.88;;;19.85;41.39
26823;BME280;14852;51.910;8.878;2022-09-16T15:05:42;98858.75;;;19.83;40.53
26823;BME280;14852;51.910;8.878;2022-09-16T15:08:19;98861.06;;;19.86;41.03
26823;BME280;14852;51.910;8.878;2022-09-16T15:10:48;98851.69;;;19.83;40.37
26823;BME280;14852;51.910;8.878;2022-09-16T15:13:19;98851.69;;;19.83;40.90
26823;BME280;14852;51.910;8.878;2022-09-16T15:16:00;98857.25;;;19.80;40.72
26823;BME280;14852;51.910;8.878;2022-09-16T15:18:30;98854.63;;;19.72;40.79
26823;BME280;14852;51.910;8.878;2022-09-16T15:21:20;98857.03;;;19.66;41.13
26823;BME280;14852;51.910;8.878;2022-09-16T15:23:57;98851.91;;;19.56;41.33
26823;BME280;14852;51.910;8.878;2022-09-16T15:26:44;98855.53;;;19.55;41.15
26823;BME280;14852;51.910;8.878;2022-09-16T15:31:43;98892.56;;;19.28;41.30
26823;BME280;14852;51.910;8.878;2022-09-16T15:39:36;98919.03;;;18.21;43.76
26823;BME280;14852;51.910;8.878;2022-09-16T15:42:16;98913.25;;;17.90;44.18
26823;BME280;14852;51.910;8.878;2022-09-16T15:44:56;98905.34;;;17.72;45.17
26823;BME280;14852;51.910;8.878;2022-09-16T15:47:26;98896.78;;;17.61;45.18
26823;BME280;14852;51.910;8.878;2022-09-16T15:50:08;98901.22;;;17.60;45.35
26823;BME280;14852;51.910;8.878;2022-09-16T15:52:58;98892.41;;;17.52;45.09